createdAt,value
2018-12-27T00:00:44.198Z,39.63
2018-12-27T00:01:43.939Z,40.03
2018-12-27T00:02:43.934Z,39.73
2018-12-27T00:03:43.912Z,39.95
2018-12-27T00:04:43.906Z,40.03
2018-12-27T00:05:43.921Z,39.25
2018-12-27T00:06:43.893Z,39.85
2018-12-27T00:07:43.867Z,40.14
2018-12-27T00:08:43.861Z,39.95
2018-12-27T00:09:43.847Z,39.94
2018-12-27T00:10:43.897Z,39.83
2018-12-27T00:11:43.836Z,39.83
2018-12-27T00:12:43.823Z,39.95
2018-12-27T00:13:43.816Z,39.95
2018-12-27T00:14:43.799Z,39.73
2018-12-27T00:15:43.820Z,39.83
2018-12-27T00:16:43.785Z,39.83
2018-12-27T00:17:43.805Z,39.83
2018-12-27T00:18:44.035Z,39.83
2018-12-27T00:19:43.865Z,39.95
2018-12-27T00:20:44.086Z,39.63
2018-12-27T00:21:43.780Z,40.16
2018-12-27T00:22:43.750Z,39.63
2018-12-27T00:23:43.753Z,40.14
2018-12-27T00:24:43.764Z,40.03
2018-12-27T00:25:44.021Z,39.94
2018-12-27T00:26:43.697Z,40.05
2018-12-27T00:27:43.686Z,39.95
2018-12-27T00:28:44.136Z,39.94
2018-12-27T00:29:43.695Z,39.94
2018-12-27T00:30:43.913Z,40.03
2018-12-27T00:31:43.880Z,39.94
2018-12-27T00:32:43.598Z,39.94
2018-12-27T00:33:43.594Z,39.63
2018-12-27T00:34:43.587Z,40.05
2018-12-27T00:35:43.596Z,39.94
2018-12-27T00:36:43.570Z,39.94
2018-12-27T00:37:43.797Z,39.95
2018-12-27T00:38:43.572Z,39.94
2018-12-27T00:39:43.521Z,39.63
2018-12-27T00:40:43.547Z,40.03
2018-12-27T00:41:43.507Z,40.03
2018-12-27T00:42:43.491Z,40.03
2018-12-27T00:43:43.768Z,40.03
2018-12-27T00:44:43.726Z,39.65
2018-12-27T00:45:43.486Z,39.83
2018-12-27T00:46:43.699Z,39.85
2018-12-27T00:47:43.447Z,39.63
2018-12-27T00:48:43.475Z,39.85
2018-12-27T00:49:43.414Z,39.94
2018-12-27T00:50:43.442Z,39.94
2018-12-27T00:51:43.415Z,39.94
2018-12-27T00:52:43.389Z,39.83
2018-12-27T00:53:43.373Z,39.95
2018-12-27T00:54:43.355Z,39.63
2018-12-27T00:55:43.380Z,39.85
2018-12-27T00:56:43.339Z,39.85
2018-12-27T00:57:43.577Z,39.94
2018-12-27T00:58:43.557Z,39.65
2018-12-27T00:59:43.303Z,39.85
2018-12-27T01:00:43.321Z,39.85
2018-12-27T01:01:43.280Z,39.75
2018-12-27T01:02:43.277Z,39.83
2018-12-27T01:03:43.259Z,39.95
2018-12-27T01:04:43.316Z,39.94
2018-12-27T01:05:43.272Z,39.63
2018-12-27T01:06:43.241Z,40.05
2018-12-27T01:07:43.218Z,40.05
2018-12-27T01:08:43.214Z,40.03
2018-12-27T01:09:43.200Z,40.03
2018-12-27T01:10:43.205Z,40.05
2018-12-27T01:11:43.190Z,40.05
2018-12-27T01:12:43.160Z,39.94
2018-12-27T01:13:43.151Z,39.94
2018-12-27T01:14:43.140Z,39.83
2018-12-27T01:15:43.206Z,40.14
2018-12-27T01:16:43.128Z,39.94
2018-12-27T01:17:43.155Z,39.95
2018-12-27T01:18:43.129Z,40.03
2018-12-27T01:19:43.125Z,39.95
2018-12-27T01:20:43.158Z,40.03
2018-12-27T01:21:43.100Z,39.85
2018-12-27T01:22:43.097Z,39.95
2018-12-27T01:23:43.079Z,39.83
2018-12-27T01:24:43.061Z,39.94
2018-12-27T01:25:43.374Z,40.23
2018-12-27T01:26:43.044Z,39.94
2018-12-27T01:27:43.075Z,39.83
2018-12-27T01:28:43.531Z,39.83
2018-12-27T01:29:42.984Z,39.83
2018-12-27T01:30:43.250Z,40.14
2018-12-27T01:31:50.467Z,40.16
2018-12-27T01:32:42.947Z,39.83
2018-12-27T01:33:42.935Z,40.03
2018-12-27T01:34:42.924Z,39.43
2018-12-27T01:35:42.954Z,39.94
2018-12-27T01:36:43.176Z,39.33
2018-12-27T01:37:42.889Z,39.13
2018-12-27T01:38:43.134Z,40.03
2018-12-27T01:39:43.115Z,39.94
2018-12-27T01:40:42.857Z,39.94
2018-12-27T01:41:42.857Z,39.03
2018-12-27T01:42:42.927Z,39.23
2018-12-27T01:43:42.823Z,40.34
2018-12-27T01:44:42.810Z,39.23
2018-12-27T01:45:42.820Z,39.33
2018-12-27T01:46:42.819Z,39.94
2018-12-27T01:47:42.872Z,39.13
2018-12-27T01:48:42.768Z,39.95
2018-12-27T01:49:42.804Z,39.94
2018-12-27T01:50:42.771Z,39.94
2018-12-27T01:51:42.743Z,39.13
2018-12-27T01:52:42.725Z,39.23
2018-12-27T01:53:42.731Z,39.23
2018-12-27T01:54:42.711Z,39.13
2018-12-27T01:55:43.203Z,39.33
2018-12-27T01:56:42.985Z,39.94
2018-12-27T01:57:42.710Z,39.23
2018-12-27T01:58:42.663Z,40.05
2018-12-27T01:59:42.649Z,39.23
2018-12-27T02:00:42.650Z,40.34
2018-12-27T02:01:42.657Z,39.94
2018-12-27T02:02:42.619Z,39.94
2018-12-27T02:03:42.609Z,39.94
2018-12-27T02:04:42.598Z,39.94
2018-12-27T02:05:42.836Z,39.53
2018-12-27T02:06:42.600Z,39.23
2018-12-27T02:07:42.641Z,39.25
2018-12-27T02:08:42.596Z,39.43
2018-12-27T02:09:42.565Z,39.23
2018-12-27T02:10:42.535Z,39.23
2018-12-27T02:11:42.564Z,40.05
2018-12-27T02:12:42.522Z,39.13
2018-12-27T02:13:42.542Z,39.94
2018-12-27T02:14:42.492Z,39.13
2018-12-27T02:15:42.480Z,39.13
2018-12-27T02:16:42.748Z,39.15
2018-12-27T02:17:42.486Z,39.23
2018-12-27T02:18:42.483Z,39.23
2018-12-27T02:19:42.480Z,39.33
2018-12-27T02:20:42.458Z,39.25
2018-12-27T02:21:42.503Z,39.13
2018-12-27T02:22:42.431Z,39.13
2018-12-27T02:23:42.675Z,39.83
2018-12-27T02:24:42.407Z,39.23
2018-12-27T02:25:42.647Z,39.13
2018-12-27T02:26:42.713Z,39.33
2018-12-27T02:27:42.444Z,39.33
2018-12-27T02:28:42.335Z,39.53
2018-12-27T02:29:42.322Z,39.63
2018-12-27T02:30:42.815Z,39.23
2018-12-27T02:31:42.334Z,39.53
2018-12-27T02:32:42.304Z,39.53
2018-12-27T02:33:42.281Z,39.53
2018-12-27T02:34:42.269Z,39.43
2018-12-27T02:35:42.256Z,39.73
2018-12-27T02:36:43.067Z,39.33
2018-12-27T02:37:42.237Z,39.33
2018-12-27T02:38:42.220Z,39.73
2018-12-27T02:39:42.211Z,39.53
2018-12-27T02:40:42.203Z,39.63
2018-12-27T02:41:42.236Z,39.83
2018-12-27T02:42:42.196Z,39.53
2018-12-27T02:43:42.419Z,39.23
2018-12-27T02:44:42.162Z,39.23
2018-12-27T02:45:42.153Z,39.43
2018-12-27T02:46:42.163Z,39.43
2018-12-27T02:47:42.132Z,39.43
2018-12-27T02:48:42.376Z,39.43
2018-12-27T02:49:42.135Z,39.33
2018-12-27T02:50:42.097Z,39.23
2018-12-27T02:51:42.112Z,39.43
2018-12-27T02:52:42.072Z,39.63
2018-12-27T02:53:42.319Z,39.53
2018-12-27T02:54:42.066Z,39.23
2018-12-27T02:55:42.045Z,39.63
2018-12-27T02:56:42.315Z,39.63
2018-12-27T02:57:42.346Z,39.63
2018-12-27T02:58:42.254Z,39.63
2018-12-27T02:59:42.250Z,39.23
2018-12-27T03:00:41.987Z,39.73
2018-12-27T03:01:42.006Z,39.73
2018-12-27T03:02:41.964Z,39.73
2018-12-27T03:03:44.020Z,39.73
2018-12-27T03:04:41.963Z,39.83
2018-12-27T03:05:41.931Z,39.53
2018-12-27T03:06:41.975Z,39.23
2018-12-27T03:07:41.905Z,39.43
2018-12-27T03:08:41.897Z,39.43
2018-12-27T03:09:41.890Z,39.23
2018-12-27T03:10:41.982Z,39.23
2018-12-27T03:11:41.903Z,39.23
2018-12-27T03:12:41.873Z,39.43
2018-12-27T03:13:41.860Z,39.23
2018-12-27T03:14:41.856Z,39.73
2018-12-27T03:15:41.818Z,39.73
2018-12-27T03:16:41.820Z,39.53
2018-12-27T03:17:41.832Z,39.63
2018-12-27T03:18:41.842Z,39.53
2018-12-27T03:19:41.984Z,39.63
2018-12-27T03:20:41.795Z,39.73
2018-12-27T03:21:41.789Z,39.43
2018-12-27T03:22:41.844Z,39.33
2018-12-27T03:23:41.769Z,39.73
2018-12-27T03:24:42.008Z,39.23
2018-12-27T03:25:41.744Z,39.23
2018-12-27T03:26:41.741Z,39.23
2018-12-27T03:27:41.825Z,39.33
2018-12-27T03:28:41.681Z,39.53
2018-12-27T03:29:41.729Z,39.23
2018-12-27T03:30:41.662Z,39.23
2018-12-27T03:31:41.650Z,39.53
2018-12-27T03:32:41.758Z,39.33
2018-12-27T03:33:41.645Z,39.43
2018-12-27T03:34:41.614Z,39.53
2018-12-27T03:35:41.623Z,39.23
2018-12-27T03:36:41.595Z,39.33
2018-12-27T03:37:41.611Z,39.33
2018-12-27T03:38:41.568Z,39.43
2018-12-27T03:39:41.559Z,39.23
2018-12-27T03:40:41.584Z,39.23
2018-12-27T03:41:41.553Z,39.23
2018-12-27T03:42:41.557Z,39.43
2018-12-27T03:43:41.765Z,39.43
2018-12-27T03:44:41.531Z,39.53
2018-12-27T03:45:41.510Z,39.43
2018-12-27T03:46:41.477Z,39.63
2018-12-27T03:47:41.758Z,39.73
2018-12-27T03:48:41.460Z,39.13
2018-12-27T03:49:41.503Z,39.73
2018-12-27T03:50:41.439Z,39.33
2018-12-27T03:51:41.447Z,38.93
2018-12-27T03:52:41.446Z,39.63
2018-12-27T03:53:41.433Z,39.43
2018-12-27T03:54:41.397Z,39.33
2018-12-27T03:55:41.381Z,39.33
2018-12-27T03:56:41.376Z,39.23
2018-12-27T03:57:41.405Z,39.23
2018-12-27T03:58:41.414Z,39.33
2018-12-27T03:59:41.345Z,39.83
2018-12-27T04:00:41.334Z,39.73
2018-12-27T04:01:41.335Z,39.63
2018-12-27T04:02:41.358Z,39.53
2018-12-27T04:03:41.358Z,39.73
2018-12-27T04:04:41.299Z,39.63
2018-12-27T04:05:41.277Z,39.83
2018-12-27T04:06:41.284Z,39.53
2018-12-27T04:07:41.333Z,39.53
2018-12-27T04:08:41.501Z,39.83
2018-12-27T04:09:41.503Z,39.83
2018-12-27T04:10:41.226Z,39.75
2018-12-27T04:11:41.221Z,39.23
2018-12-27T04:12:41.234Z,39.55
2018-12-27T04:13:41.187Z,39.15
2018-12-27T04:14:41.178Z,39.03
2018-12-27T04:15:41.178Z,39.03
2018-12-27T04:16:41.156Z,39.23
2018-12-27T04:17:41.492Z,39.35
2018-12-27T04:18:41.173Z,39.25
2018-12-27T04:19:41.162Z,39.13
2018-12-27T04:20:41.406Z,39.13
2018-12-27T04:21:41.134Z,39.35
2018-12-27T04:22:41.192Z,39.23
2018-12-27T04:23:41.376Z,39.55
2018-12-27T04:24:41.101Z,39.73
2018-12-27T04:25:41.092Z,39.15
2018-12-27T04:26:41.447Z,39.15
2018-12-27T04:27:41.118Z,39.13
2018-12-27T04:28:41.033Z,39.13
2018-12-27T04:29:41.016Z,39.13
2018-12-27T04:30:41.003Z,39.15
2018-12-27T04:31:41.010Z,39.15
2018-12-27T04:32:41.016Z,39.23
2018-12-27T04:33:40.978Z,39.04
2018-12-27T04:34:41.216Z,39.25
2018-12-27T04:35:40.955Z,39.15
2018-12-27T04:36:40.951Z,39.35
2018-12-27T04:37:40.981Z,39.13
2018-12-27T04:38:41.174Z,39.23
2018-12-27T04:39:40.911Z,39.25
2018-12-27T04:40:40.900Z,39.23
2018-12-27T04:41:40.889Z,39.23
2018-12-27T04:42:41.155Z,40.36
2018-12-27T04:43:41.120Z,39.13
2018-12-27T04:44:40.851Z,39.23
2018-12-27T04:45:40.877Z,40.34
2018-12-27T04:46:40.827Z,39.33
2018-12-27T04:47:40.928Z,39.43
2018-12-27T04:48:40.815Z,39.25
2018-12-27T04:49:40.801Z,39.13
2018-12-27T04:50:41.051Z,39.25
2018-12-27T04:51:40.792Z,39.25
2018-12-27T04:52:40.766Z,39.33
2018-12-27T04:53:40.783Z,39.53
2018-12-27T04:54:40.743Z,39.13
2018-12-27T04:55:40.729Z,39.15
2018-12-27T04:56:40.995Z,39.43
2018-12-27T04:57:40.709Z,39.13
2018-12-27T04:58:40.724Z,39.35
2018-12-27T04:59:41.099Z,40.05
2018-12-27T05:00:40.984Z,39.35
2018-12-27T05:01:42.960Z,39.25
2018-12-27T05:02:40.656Z,40.16
2018-12-27T05:03:40.717Z,39.35
2018-12-27T05:04:40.633Z,39.25
2018-12-27T05:05:40.690Z,39.35
2018-12-27T05:06:40.676Z,39.95
2018-12-27T05:07:40.605Z,39.25
2018-12-27T05:08:41.179Z,39.15
2018-12-27T05:09:40.588Z,39.35
2018-12-27T05:10:41.924Z,39.13
2018-12-27T05:11:40.804Z,39.15
2018-12-27T05:12:40.794Z,39.45
2018-12-27T05:13:41.690Z,39.53
2018-12-27T05:14:40.527Z,39.45
2018-12-27T05:15:40.651Z,39.35
2018-12-27T05:16:40.563Z,39.25
2018-12-27T05:17:40.522Z,39.13
2018-12-27T05:18:40.586Z,39.25
2018-12-27T05:19:40.520Z,39.04
2018-12-27T05:20:40.492Z,39.25
2018-12-27T05:21:40.477Z,39.15
2018-12-27T05:22:40.501Z,39.95
2018-12-27T05:23:40.555Z,40.05
2018-12-27T05:24:40.458Z,40.05
2018-12-27T05:25:40.477Z,39.95
2018-12-27T05:26:40.419Z,40.05
2018-12-27T05:27:40.411Z,40.05
2018-12-27T05:28:40.709Z,39.25
2018-12-27T05:29:40.631Z,39.95
2018-12-27T05:30:40.387Z,40.16
2018-12-27T05:31:40.342Z,40.05
2018-12-27T05:32:40.324Z,40.05
2018-12-27T05:33:40.373Z,40.05
2018-12-27T05:34:40.315Z,40.05
2018-12-27T05:35:40.549Z,40.05
2018-12-27T05:36:40.376Z,40.05
2018-12-27T05:37:40.459Z,39.25
2018-12-27T05:38:40.285Z,39.75
2018-12-27T05:39:40.549Z,40.16
2018-12-27T05:40:40.245Z,40.05
2018-12-27T05:41:40.441Z,39.35
2018-12-27T05:42:40.297Z,39.35
2018-12-27T05:43:40.249Z,40.16
2018-12-27T05:44:40.270Z,40.05
2018-12-27T05:45:40.180Z,39.95
2018-12-27T05:46:40.682Z,40.08
2018-12-27T05:47:40.157Z,39.15
2018-12-27T05:48:40.179Z,39.95
2018-12-27T05:49:40.180Z,40.16
2018-12-27T05:50:40.350Z,40.05
2018-12-27T05:51:40.120Z,40.16
2018-12-27T05:52:40.614Z,39.95
2018-12-27T05:53:40.166Z,40.16
2018-12-27T05:54:40.148Z,39.65
2018-12-27T05:55:40.071Z,39.75
2018-12-27T05:56:40.067Z,39.85
2018-12-27T05:57:40.052Z,40.05
2018-12-27T05:58:40.095Z,39.85
2018-12-27T05:59:40.031Z,40.05
2018-12-27T06:00:41.154Z,39.85
2018-12-27T06:01:40.006Z,39.85
2018-12-27T06:02:40.000Z,40.28
2018-12-27T06:03:40.022Z,39.57
2018-12-27T06:04:40.012Z,39.26
2018-12-27T06:05:39.971Z,40.25
2018-12-27T06:06:40.203Z,39.45
2018-12-27T06:07:39.942Z,40.37
2018-12-27T06:08:39.928Z,40.08
2018-12-27T06:09:39.947Z,40.16
2018-12-27T06:10:40.238Z,40.05
2018-12-27T06:11:40.245Z,39.85
2018-12-27T06:12:42.186Z,39.85
2018-12-27T06:13:39.887Z,40.08
2018-12-27T06:14:39.927Z,40.25
2018-12-27T06:15:39.861Z,39.95
2018-12-27T06:16:40.131Z,40.16
2018-12-27T06:17:39.862Z,40.17
2018-12-27T06:18:39.938Z,40.16
2018-12-27T06:19:44.348Z,39.35
2018-12-27T06:20:39.837Z,39.77
2018-12-27T06:21:39.822Z,39.85
2018-12-27T06:22:39.804Z,39.95
2018-12-27T06:23:39.844Z,39.85
2018-12-27T06:24:40.120Z,39.85
2018-12-27T06:25:39.790Z,39.85
2018-12-27T06:26:39.760Z,39.85
2018-12-27T06:27:39.757Z,40.05
2018-12-27T06:28:39.705Z,39.95
2018-12-27T06:29:39.868Z,39.77
2018-12-27T06:30:39.693Z,39.85
2018-12-27T06:31:39.699Z,39.85
2018-12-27T06:32:39.671Z,40.08
2018-12-27T06:33:39.682Z,39.97
2018-12-27T06:34:41.506Z,40.16
2018-12-27T06:35:39.634Z,39.85
2018-12-27T06:36:39.641Z,39.67
2018-12-27T06:37:39.630Z,40.16
2018-12-27T06:38:39.597Z,39.77
2018-12-27T06:39:39.618Z,40.25
2018-12-27T06:40:39.584Z,40.16
2018-12-27T06:41:39.590Z,40.25
2018-12-27T06:42:39.565Z,39.26
2018-12-27T06:43:40.496Z,40.05
2018-12-27T06:44:39.627Z,40.05
2018-12-27T06:45:39.544Z,39.26
2018-12-27T06:46:39.523Z,39.15
2018-12-27T06:47:39.775Z,39.65
2018-12-27T06:48:39.531Z,39.55
2018-12-27T06:49:39.572Z,39.25
2018-12-27T06:50:39.472Z,39.57
2018-12-27T06:51:39.459Z,39.75
2018-12-27T06:52:39.450Z,39.26
2018-12-27T06:53:39.441Z,39.55
2018-12-27T06:54:39.479Z,39.45
2018-12-27T06:55:39.420Z,39.35
2018-12-27T06:56:39.464Z,39.25
2018-12-27T06:57:39.917Z,37.95
2018-12-27T06:58:39.635Z,37.63
2018-12-27T06:59:39.457Z,37.65
2018-12-27T07:00:39.610Z,38.46
2018-12-27T07:01:39.352Z,38.46
2018-12-27T07:02:39.336Z,38.46
2018-12-27T07:03:39.356Z,38.46
2018-12-27T07:04:39.349Z,37.66
2018-12-27T07:05:39.715Z,37.87
2018-12-27T07:06:39.325Z,38.17
2018-12-27T07:07:39.323Z,36.66
2018-12-27T07:08:39.286Z,37.77
2018-12-27T07:09:39.300Z,37.57
2018-12-27T07:10:39.258Z,38.07
2018-12-27T07:11:39.517Z,37.48
2018-12-27T07:12:39.233Z,37.48
2018-12-27T07:13:39.373Z,37.57
2018-12-27T07:14:39.301Z,37.89
2018-12-27T07:15:39.268Z,37.89
2018-12-27T07:16:39.235Z,36.77
2018-12-27T07:17:39.247Z,36.68
2018-12-27T07:18:39.197Z,36.88
2018-12-27T07:19:39.247Z,37.30
2018-12-27T07:20:39.204Z,36.98
2018-12-27T07:21:39.167Z,38.01
2018-12-27T07:22:39.170Z,37.89
2018-12-27T07:23:39.157Z,37.50
2018-12-27T07:24:39.255Z,38.31
2018-12-27T07:25:39.150Z,37.40
2018-12-27T07:26:40.520Z,37.50
2018-12-27T07:27:39.158Z,38.31
2018-12-27T07:28:39.236Z,38.11
2018-12-27T07:29:39.238Z,38.21
2018-12-27T07:30:39.389Z,37.70
2018-12-27T07:31:39.048Z,37.50
2018-12-27T07:32:39.127Z,37.82
2018-12-27T07:33:39.013Z,37.62
2018-12-27T07:34:39.021Z,37.90
2018-12-27T07:35:39.222Z,38.02
2018-12-27T07:36:39.303Z,38.02
2018-12-27T07:37:39.008Z,38.23
2018-12-27T07:38:39.263Z,37.62
2018-12-27T07:39:39.211Z,38.02
2018-12-27T07:40:39.262Z,38.33
2018-12-27T07:41:38.966Z,37.62
2018-12-27T07:42:38.953Z,37.62
2018-12-27T07:43:38.929Z,38.53
2018-12-27T07:44:39.097Z,37.62
2018-12-27T07:45:38.906Z,38.13
2018-12-27T07:46:39.171Z,38.73
2018-12-27T07:47:38.874Z,39.34
2018-12-27T07:48:38.874Z,38.33
2018-12-27T07:49:38.848Z,38.33
2018-12-27T07:50:38.847Z,38.33
2018-12-27T07:51:38.828Z,37.92
2018-12-27T07:52:38.896Z,37.92
2018-12-27T07:53:38.792Z,38.02
2018-12-27T07:54:39.032Z,37.82
2018-12-27T07:55:39.249Z,37.52
2018-12-27T07:56:38.751Z,37.92
2018-12-27T07:57:39.012Z,38.33
2018-12-27T07:58:39.001Z,38.23
2018-12-27T07:59:38.760Z,38.73
2018-12-27T08:00:38.743Z,37.52
2018-12-27T08:01:38.726Z,37.42
2018-12-27T08:02:38.735Z,38.53
2018-12-27T08:03:38.715Z,37.92
2018-12-27T08:04:38.667Z,37.52
2018-12-27T08:05:38.693Z,38.02
2018-12-27T08:06:38.711Z,37.72
2018-12-27T08:07:38.898Z,37.50
2018-12-27T08:08:38.984Z,38.11
2018-12-27T08:09:38.689Z,37.50
2018-12-27T08:10:38.723Z,38.21
2018-12-27T08:11:38.613Z,36.79
2018-12-27T08:12:38.602Z,36.77
2018-12-27T08:13:38.594Z,37.38
2018-12-27T08:14:38.619Z,36.77
2018-12-27T08:15:38.594Z,36.88
2018-12-27T08:16:40.375Z,36.57
2018-12-27T08:17:38.592Z,36.27
2018-12-27T08:18:38.539Z,36.37
2018-12-27T08:19:38.537Z,36.86
2018-12-27T08:20:39.420Z,35.65
2018-12-27T08:21:38.516Z,36.25
2018-12-27T08:22:38.529Z,36.35
2018-12-27T08:23:38.755Z,35.65
2018-12-27T08:24:38.483Z,35.23
2018-12-27T08:25:38.527Z,36.04
2018-12-27T08:26:38.482Z,35.73
2018-12-27T08:27:38.453Z,35.11
2018-12-27T08:28:38.405Z,35.82
2018-12-27T08:29:38.389Z,36.64
2018-12-27T08:30:38.669Z,37.63
2018-12-27T08:31:38.374Z,37.41
2018-12-27T08:32:38.374Z,37.84
2018-12-27T08:33:38.904Z,37.71
2018-12-27T08:34:38.338Z,37.41
2018-12-27T08:35:38.372Z,38.02
2018-12-27T08:36:38.327Z,37.31
2018-12-27T08:37:38.311Z,37.80
2018-12-27T08:38:38.294Z,37.70
2018-12-27T08:39:38.317Z,37.40
2018-12-27T08:40:38.314Z,37.80
2018-12-27T08:41:38.784Z,37.68
2018-12-27T08:42:38.297Z,37.78
2018-12-27T08:43:38.500Z,37.18
2018-12-27T08:44:38.243Z,37.66
2018-12-27T08:45:38.261Z,37.38
2018-12-27T08:46:38.221Z,37.06
2018-12-27T08:47:38.203Z,37.16
2018-12-27T08:48:38.197Z,36.84
2018-12-27T08:49:38.237Z,36.84
2018-12-27T08:50:38.198Z,36.64
2018-12-27T08:51:38.159Z,36.33
2018-12-27T08:52:38.138Z,36.52
2018-12-27T08:53:38.152Z,36.42
2018-12-27T08:54:38.120Z,36.90
2018-12-27T08:55:38.442Z,36.40
2018-12-27T08:56:38.112Z,36.40
2018-12-27T08:57:38.093Z,36.58
2018-12-27T08:58:38.078Z,36.38
2018-12-27T08:59:38.115Z,35.38
2018-12-27T09:00:38.092Z,35.08
2018-12-27T09:01:38.293Z,35.46
2018-12-27T09:02:38.062Z,35.06
2018-12-27T09:03:38.032Z,35.06
2018-12-27T09:04:38.029Z,35.06
2018-12-27T09:05:38.038Z,35.06
2018-12-27T09:06:37.998Z,34.94
2018-12-27T09:07:37.988Z,34.64
2018-12-27T09:08:37.974Z,34.54
2018-12-27T09:09:37.969Z,34.64
2018-12-27T09:10:37.994Z,34.84
2018-12-27T09:11:37.942Z,35.13
2018-12-27T09:12:37.941Z,35.03
2018-12-27T09:13:37.921Z,34.73
2018-12-27T09:14:37.901Z,34.33
2018-12-27T09:15:37.915Z,34.53
2018-12-27T09:16:38.105Z,34.53
2018-12-27T09:17:37.910Z,34.42
2018-12-27T09:18:37.890Z,34.42
2018-12-27T09:19:37.917Z,34.53
2018-12-27T09:20:37.879Z,34.42
2018-12-27T09:21:37.928Z,34.21
2018-12-27T09:22:37.852Z,34.73
2018-12-27T09:23:37.842Z,34.41
2018-12-27T09:24:37.840Z,34.51
2018-12-27T09:25:37.820Z,34.41
2018-12-27T09:26:37.866Z,34.51
2018-12-27T09:27:39.746Z,33.20
2018-12-27T09:28:38.058Z,33.51
2018-12-27T09:29:37.758Z,33.61
2018-12-27T09:30:37.993Z,33.31
2018-12-27T09:31:39.249Z,33.61
2018-12-27T09:32:37.716Z,33.31
2018-12-27T09:33:37.697Z,33.20
2018-12-27T09:34:37.688Z,33.20
2018-12-27T09:35:37.705Z,33.40
2018-12-27T09:36:37.701Z,33.61
2018-12-27T09:37:37.929Z,33.61
2018-12-27T09:38:37.642Z,34.01
2018-12-27T09:39:37.916Z,33.62
2018-12-27T09:40:37.617Z,33.40
2018-12-27T09:41:37.674Z,33.83
2018-12-27T09:42:37.611Z,33.72
2018-12-27T09:43:37.605Z,33.71
2018-12-27T09:44:37.608Z,33.51
2018-12-27T09:45:37.577Z,33.61
2018-12-27T09:46:37.593Z,33.42
2018-12-27T09:47:37.551Z,33.71
2018-12-27T09:48:37.538Z,33.61
2018-12-27T09:49:37.524Z,33.61
2018-12-27T09:50:37.769Z,33.91
2018-12-27T09:51:37.547Z,33.71
2018-12-27T09:52:37.588Z,33.61
2018-12-27T09:53:37.484Z,33.31
2018-12-27T09:54:37.469Z,33.71
2018-12-27T09:55:37.462Z,33.51
2018-12-27T09:56:37.473Z,33.61
2018-12-27T09:57:37.715Z,33.71
2018-12-27T09:58:37.426Z,33.51
2018-12-27T09:59:37.561Z,33.81
2018-12-27T10:00:37.401Z,33.40
2018-12-27T10:01:37.415Z,33.81
2018-12-27T10:02:37.402Z,33.51
2018-12-27T10:03:37.389Z,33.71
2018-12-27T10:04:37.360Z,33.51
2018-12-27T10:05:37.352Z,34.01
2018-12-27T10:06:37.369Z,33.71
2018-12-27T10:07:37.380Z,33.00
2018-12-27T10:08:37.594Z,33.61
2018-12-27T10:09:37.584Z,33.31
2018-12-27T10:10:37.335Z,33.81
2018-12-27T10:11:37.317Z,33.31
2018-12-27T10:12:37.304Z,32.90
2018-12-27T10:13:37.262Z,33.31
2018-12-27T10:14:37.253Z,33.99
2018-12-27T10:15:37.256Z,33.61
2018-12-27T10:16:37.791Z,33.29
2018-12-27T10:17:37.251Z,33.20
2018-12-27T10:18:37.257Z,33.69
2018-12-27T10:19:37.256Z,33.20
2018-12-27T10:20:37.232Z,32.89
2018-12-27T10:21:37.532Z,32.89
2018-12-27T10:22:37.209Z,32.89
2018-12-27T10:23:37.322Z,33.09
2018-12-27T10:24:37.179Z,32.59
2018-12-27T10:25:37.189Z,32.89
2018-12-27T10:26:37.204Z,33.29
2018-12-27T10:27:38.379Z,33.19
2018-12-27T10:28:37.130Z,32.99
2018-12-27T10:29:37.093Z,32.49
2018-12-27T10:30:37.108Z,32.79
2018-12-27T10:31:37.104Z,32.99
2018-12-27T10:32:37.064Z,32.79
2018-12-27T10:33:37.306Z,33.39
2018-12-27T10:34:37.052Z,32.77
2018-12-27T10:35:41.048Z,32.97
2018-12-27T10:36:37.277Z,32.47
2018-12-27T10:37:37.017Z,33.37
2018-12-27T10:38:37.000Z,33.09
2018-12-27T10:39:36.985Z,33.37
2018-12-27T10:40:36.967Z,32.97
2018-12-27T10:41:36.959Z,33.07
2018-12-27T10:42:36.984Z,32.57
2018-12-27T10:43:36.965Z,32.97
2018-12-27T10:44:36.935Z,32.97
2018-12-27T10:45:36.935Z,32.57
2018-12-27T10:46:36.938Z,33.07
2018-12-27T10:47:36.927Z,32.57
2018-12-27T10:48:36.893Z,32.77
2018-12-27T10:49:36.891Z,33.17
2018-12-27T10:50:37.117Z,33.07
2018-12-27T10:51:36.864Z,32.87
2018-12-27T10:52:36.872Z,33.37
2018-12-27T10:53:36.888Z,33.07
2018-12-27T10:54:36.840Z,32.77
2018-12-27T10:55:39.388Z,32.97
2018-12-27T10:56:37.074Z,32.47
2018-12-27T10:57:36.957Z,32.57
2018-12-27T10:58:36.785Z,32.37
2018-12-27T10:59:36.782Z,32.07
2018-12-27T11:00:37.964Z,32.57
2018-12-27T11:01:36.753Z,32.57
2018-12-27T11:02:37.048Z,32.57
2018-12-27T11:03:36.760Z,32.67
2018-12-27T11:04:36.735Z,32.57
2018-12-27T11:05:36.726Z,32.76
2018-12-27T11:06:36.779Z,32.46
2018-12-27T11:07:38.912Z,32.26
2018-12-27T11:08:36.683Z,32.37
2018-12-27T11:09:36.666Z,32.56
2018-12-27T11:10:36.681Z,32.76
2018-12-27T11:11:36.919Z,31.76
2018-12-27T11:12:36.919Z,32.56
2018-12-27T11:13:36.675Z,31.96
2018-12-27T11:14:36.615Z,31.96
2018-12-27T11:15:36.611Z,32.26
2018-12-27T11:16:36.655Z,31.56
2018-12-27T11:17:37.181Z,31.65
2018-12-27T11:18:36.632Z,31.65
2018-12-27T11:19:36.848Z,31.85
2018-12-27T11:20:36.587Z,31.76
2018-12-27T11:21:36.564Z,32.15
2018-12-27T11:22:36.618Z,31.76
2018-12-27T11:23:36.543Z,31.76
2018-12-27T11:24:36.532Z,31.87
2018-12-27T11:25:36.782Z,32.07
2018-12-27T11:26:38.100Z,31.96
2018-12-27T11:27:36.754Z,31.76
2018-12-27T11:28:36.459Z,31.96
2018-12-27T11:29:36.449Z,32.47
2018-12-27T11:30:36.950Z,31.97
2018-12-27T11:31:36.425Z,31.77
2018-12-27T11:32:36.446Z,31.87
2018-12-27T11:33:36.657Z,31.77
2018-12-27T11:34:36.406Z,32.37
2018-12-27T11:35:36.887Z,32.47
2018-12-27T11:36:36.623Z,32.27
2018-12-27T11:37:36.499Z,32.47
2018-12-27T11:38:36.365Z,32.67
2018-12-27T11:39:36.407Z,32.77
2018-12-27T11:40:36.599Z,32.77
2018-12-27T11:41:36.314Z,31.99
2018-12-27T11:42:36.593Z,32.37
2018-12-27T11:43:36.705Z,32.39
2018-12-27T11:44:36.282Z,32.37
2018-12-27T11:45:36.268Z,32.69
2018-12-27T11:46:36.278Z,32.79
2018-12-27T11:47:36.270Z,32.79
2018-12-27T11:48:36.280Z,32.47
2018-12-27T11:49:36.227Z,32.59
2018-12-27T11:50:36.484Z,32.79
2018-12-27T11:51:36.228Z,32.79
2018-12-27T11:52:36.245Z,32.79
2018-12-27T11:53:36.242Z,32.89
2018-12-27T11:54:36.433Z,32.99
2018-12-27T11:55:36.159Z,33.19
2018-12-27T11:56:36.407Z,33.09
2018-12-27T11:57:36.180Z,33.19
2018-12-27T11:58:36.130Z,32.79
2018-12-27T11:59:36.139Z,33.19
2018-12-27T12:00:36.369Z,33.29
2018-12-27T12:01:36.107Z,33.39
2018-12-27T12:02:36.120Z,33.09
2018-12-27T12:03:36.073Z,32.69
2018-12-27T12:04:36.075Z,33.19
2018-12-27T12:05:36.351Z,33.09
2018-12-27T12:06:36.066Z,32.89
2018-12-27T12:07:36.028Z,32.99
2018-12-27T12:08:36.285Z,32.89
2018-12-27T12:09:36.072Z,32.99
2018-12-27T12:10:36.029Z,33.19
2018-12-27T12:11:36.006Z,33.09
2018-12-27T12:12:35.990Z,33.19
2018-12-27T12:13:35.965Z,32.59
2018-12-27T12:14:35.966Z,32.60
2018-12-27T12:15:35.945Z,33.11
2018-12-27T12:16:35.956Z,32.81
2018-12-27T12:17:35.973Z,32.60
2018-12-27T12:18:35.950Z,33.11
2018-12-27T12:19:35.925Z,32.81
2018-12-27T12:20:35.933Z,33.00
2018-12-27T12:21:35.917Z,33.20
2018-12-27T12:22:35.969Z,33.11
2018-12-27T12:23:35.910Z,32.90
2018-12-27T12:24:35.876Z,33.11
2018-12-27T12:25:36.155Z,33.20
2018-12-27T12:26:35.867Z,33.11
2018-12-27T12:27:35.854Z,32.70
2018-12-27T12:28:35.811Z,33.00
2018-12-27T12:29:35.808Z,32.92
2018-12-27T12:30:36.057Z,32.82
2018-12-27T12:31:35.771Z,32.82
2018-12-27T12:32:35.763Z,33.31
2018-12-27T12:33:35.790Z,33.22
2018-12-27T12:34:35.775Z,32.81
2018-12-27T12:35:35.764Z,32.72
2018-12-27T12:36:35.974Z,32.72
2018-12-27T12:37:35.713Z,33.02
2018-12-27T12:38:35.719Z,32.72
2018-12-27T12:39:35.694Z,33.32
2018-12-27T12:40:35.680Z,33.02
2018-12-27T12:41:35.661Z,32.42
2018-12-27T12:42:35.902Z,33.42
2018-12-27T12:43:35.947Z,33.02
2018-12-27T12:44:35.664Z,32.92
2018-12-27T12:45:35.872Z,33.12
2018-12-27T12:46:35.872Z,32.84
2018-12-27T12:47:35.695Z,33.22
2018-12-27T12:48:35.615Z,32.93
2018-12-27T12:49:35.626Z,32.84
2018-12-27T12:50:35.597Z,33.54
2018-12-27T12:51:35.566Z,33.74
2018-12-27T12:52:35.645Z,33.64